sensor_id;sensor_type;location;lat;lon;timestamp;P1;durP1;ratioP1;P2;durP2;ratioP2
15049;SDS011;7622;42.724;23.250;2022-08-21T00:00:16;8.70;;;6.80;;
15049;SDS011;7622;42.724;23.250;2022-08-21T00:02:48;7.50;;;6.73;;
15049;SDS011;7622;42.724;23.250;2022-08-21T00:05:22;12.23;;;8.40;;
15049;SDS011;7622;42.724;23.250;2022-08-21T00:07:51;15.13;;;9.80;;
15049;SDS011;7622;42.724;23.250;2022-08-21T00:10:18;12.50;;;9.60;;
15049;SDS011;7622;42.724;23.250;2022-08-21T00:12:46;9.90;;;8.90;;
15049;SDS011;7622;42.724;23.250;2022-08-21T00:15:15;15.13;;;10.20;;
15049;SDS011;7622;42.724;23.250;2022-08-21T00:17:44;13.87;;;9.93;;
15049;SDS011;7622;42.724;23.250;2022-08-21T00:20:15;9.27;;;8.43;;
15049;SDS011;7622;42.724;23.250;2022-08-21T00:22:44;13.20;;;9.17;;
15049;SDS011;7622;42.724;23.250;2022-08-21T00:25:13;14.57;;;9.33;;
15049;SDS011;7622;42.724;23.250;2022-08-21T00:27:41;11.33;;;8.80;;
15049;SDS011;7622;42.724;23.250;2022-08-21T00:30:09;11.77;;;8.50;;
15049;SDS011;7622;42.724;23.250;2022-08-21T00:32:37;9.70;;;8.67;;
15049;SDS011;7622;42.724;23.250;2022-08-21T00:35:05;10.17;;;7.77;;
15049;SDS011;7622;42.724;23.250;2022-08-21T00:37:34;10.47;;;8.33;;
15049;SDS011;7622;42.724;23.250;2022-08-21T00:40:01;9.07;;;8.27;;
15049;SDS011;7622;42.724;23.250;2022-08-21T00:42:29;11.57;;;7.23;;
15049;SDS011;7622;42.724;23.250;2022-08-21T00:44:56;9.00;;;6.77;;
15049;SDS011;7622;42.724;23.250;2022-08-21T00:47:24;8.03;;;6.70;;
15049;SDS011;7622;42.724;23.250;2022-08-21T00:49:50;7.47;;;6.77;;
15049;SDS011;7622;42.724;23.250;2022-08-21T00:52:18;7.17;;;6.47;;
15049;SDS011;7622;42.724;23.250;2022-08-21T00:54:48;7.77;;;5.90;;
15049;SDS011;7622;42.724;23.250;2022-08-21T00:57:17;9.90;;;6.50;;
15049;SDS011;7622;42.724;23.250;2022-08-21T00:59:51;8.73;;;6.57;;
15049;SDS011;7622;42.724;23.250;2022-08-21T01:02:22;9.83;;;6.87;;
15049;SDS011;7622;42.724;23.250;2022-08-21T01:04:48;7.97;;;7.20;;
15049;SDS011;7622;42.724;23.250;2022-08-21T01:07:16;10.00;;;8.63;;
15049;SDS011;7622;42.724;23.250;2022-08-21T01:09:43;9.60;;;8.63;;
15049;SDS011;7622;42.724;23.250;2022-08-21T01:12:12;10.47;;;9.10;;
15049;SDS011;7622;42.724;23.250;2022-08-21T01:14:40;10.10;;;8.67;;
15049;SDS011;7622;42.724;23.250;2022-08-21T01:17:09;12.20;;;8.67;;
15049;SDS011;7622;42.724;23.250;2022-08-21T01:19:37;10.10;;;9.00;;
15049;SDS011;7622;42.724;23.250;2022-08-21T01:22:06;10.90;;;9.07;;
15049;SDS011;7622;42.724;23.250;2022-08-21T01:24:33;12.10;;;9.17;;
15049;SDS011;7622;42.724;23.250;2022-08-21T01:27:00;10.43;;;8.30;;
15049;SDS011;7622;42.724;23.250;2022-08-21T01:29:35;14.00;;;8.60;;
15049;SDS011;7622;42.724;23.250;2022-08-21T01:32:06;11.30;;;8.60;;
15049;SDS011;7622;42.724;23.250;2022-08-21T01:34:37;12.37;;;9.37;;
15049;SDS011;7622;42.724;23.250;2022-08-21T01:37:06;13.47;;;10.00;;
15049;SDS011;7622;42.724;23.250;2022-08-21T01:39:34;13.17;;;9.67;;
15049;SDS011;7622;42.724;23.250;2022-08-21T01:42:01;17.37;;;10.70;;
15049;SDS011;7622;42.724;23.250;2022-08-21T01:44:28;13.30;;;9.27;;
15049;SDS011;7622;42.724;23.250;2022-08-21T01:46:55;13.13;;;9.50;;
15049;SDS011;7622;42.724;23.250;2022-08-21T01:49:23;10.60;;;9.50;;
15049;SDS011;7622;42.724;23.250;2022-08-21T01:51:50;11.20;;;10.03;;
15049;SDS011;7622;42.724;23.250;2022-08-21T01:54:18;12.17;;;9.67;;
15049;SDS011;7622;42.724;23.250;2022-08-21T01:56:46;12.97;;;9.27;;
15049;SDS011;7622;42.724;23.250;2022-08-21T01:59:15;11.80;;;9.70;;
15049;SDS011;7622;42.724;23.250;2022-08-21T02:01:42;12.23;;;9.73;;
15049;SDS011;7622;42.724;23.250;2022-08-21T02:04:09;12.33;;;10.80;;
15049;SDS011;7622;42.724;23.250;2022-08-21T02:06:37;11.83;;;10.50;;
15049;SDS011;7622;42.724;23.250;2022-08-21T02:09:05;11.00;;;9.90;;
15049;SDS011;7622;42.724;23.250;2022-08-21T02:11:35;16.07;;;10.10;;
15049;SDS011;7622;42.724;23.250;2022-08-21T02:14:05;11.20;;;9.87;;
15049;SDS011;7622;42.724;23.250;2022-08-21T02:16:32;10.67;;;9.57;;
15049;SDS011;7622;42.724;23.250;2022-08-21T02:18:59;12.00;;;9.67;;
15049;SDS011;7622;42.724;23.250;2022-08-21T02:21:26;12.97;;;10.07;;
15049;SDS011;7622;42.724;23.250;2022-08-21T02:23:53;11.70;;;10.13;;
15049;SDS011;7622;42.724;23.250;2022-08-21T02:26:19;14.37;;;10.97;;
15049;SDS011;7622;42.724;23.250;2022-08-21T02:28:48;13.43;;;9.47;;
15049;SDS011;7622;42.724;23.250;2022-08-21T02:31:15;12.57;;;9.37;;
15049;SDS011;7622;42.724;23.250;2022-08-21T02:33:42;12.67;;;9.03;;
15049;SDS011;7622;42.724;23.250;2022-08-21T02:36:09;9.47;;;8.47;;
15049;SDS011;7622;42.724;23.250;2022-08-21T02:38:37;10.17;;;8.97;;
15049;SDS011;7622;42.724;23.250;2022-08-21T02:41:06;8.67;;;7.73;;
15049;SDS011;7622;42.724;23.250;2022-08-21T02:43:39;11.30;;;8.83;;
15049;SDS011;7622;42.724;23.250;2022-08-21T02:46:08;12.60;;;8.43;;
15049;SDS011;7622;42.724;23.250;2022-08-21T02:48:37;11.60;;;10.07;;
15049;SDS011;7622;42.724;23.250;2022-08-21T02:51:04;12.70;;;9.37;;
15049;SDS011;7622;42.724;23.250;2022-08-21T02:53:32;10.97;;;9.13;;
15049;SDS011;7622;42.724;23.250;2022-08-21T02:56:02;10.73;;;9.03;;
15049;SDS011;7622;42.724;23.250;2022-08-21T02:58:32;12.77;;;9.20;;
15049;SDS011;7622;42.724;23.250;2022-08-21T03:01:03;12.43;;;8.97;;
15049;SDS011;7622;42.724;23.250;2022-08-21T03:03:36;10.63;;;8.37;;
15049;SDS011;7622;42.724;23.250;2022-08-21T03:06:05;9.03;;;8.13;;
15049;SDS011;7622;42.724;23.250;2022-08-21T03:08:33;9.03;;;8.13;;
15049;SDS011;7622;42.724;23.250;2022-08-21T03:11:00;10.00;;;8.40;;
15049;SDS011;7622;42.724;23.250;2022-08-21T03:13:27;13.07;;;9.27;;
15049;SDS011;7622;42.724;23.250;2022-08-21T03:15:54;11.20;;;8.30;;
15049;SDS011;7622;42.724;23.250;2022-08-21T03:18:22;13.23;;;8.90;;
15049;SDS011;7622;42.724;23.250;2022-08-21T03:20:50;9.57;;;8.63;;
15049;SDS011;7622;42.724;23.250;2022-08-21T03:23:17;10.33;;;8.37;;
15049;SDS011;7622;42.724;23.250;2022-08-21T03:25:44;9.67;;;8.63;;
15049;SDS011;7622;42.724;23.250;2022-08-21T03:28:14;14.00;;;9.80;;
15049;SDS011;7622;42.724;23.250;2022-08-21T03:30:43;12.57;;;10.00;;
15049;SDS011;7622;42.724;23.250;2022-08-21T03:33:11;14.43;;;10.30;;
15049;SDS011;7622;42.724;23.250;2022-08-21T03:35:39;14.10;;;10.33;;
15049;SDS011;7622;42.724;23.250;2022-08-21T03:38:08;12.13;;;10.40;;
15049;SDS011;7622;42.724;23.250;2022-08-21T03:40:37;11.43;;;10.30;;
15049;SDS011;7622;42.724;23.250;2022-08-21T03:43:04;13.87;;;11.17;;
15049;SDS011;7622;42.724;23.250;2022-08-21T03:45:34;13.03;;;10.53;;
15049;SDS011;7622;42.724;23.250;2022-08-21T03:48:02;16.13;;;10.97;;
15049;SDS011;7622;42.724;23.250;2022-08-21T03:50:31;14.53;;;10.67;;
15049;SDS011;7622;42.724;23.250;2022-08-21T03:53:00;15.00;;;10.93;;
15049;SDS011;7622;42.724;23.250;2022-08-21T03:55:28;12.17;;;10.70;;
15049;SDS011;7622;42.724;23.250;2022-08-21T03:57:55;13.17;;;10.03;;
15049;SDS011;7622;42.724;23.250;2022-08-21T04:00:22;12.13;;;9.97;;
15049;SDS011;7622;42.724;23.250;2022-08-21T04:02:50;12.97;;;10.60;;
15049;SDS011;7622;42.724;23.250;2022-08-21T04:05:17;11.67;;;10.30;;
15049;SDS011;7622;42.724;23.250;2022-08-21T04:07:53;15.20;;;9.77;;
15049;SDS011;7622;42.724;23.250;2022-08-21T04:10:21;12.90;;;10.07;;
15049;SDS011;7622;42.724;23.250;2022-08-21T04:12:51;17.27;;;11.17;;
15049;SDS011;7622;42.724;23.250;2022-08-21T04:15:18;15.33;;;12.03;;
15049;SDS011;7622;42.724;23.250;2022-08-21T04:17:45;13.40;;;11.77;;
15049;SDS011;7622;42.724;23.250;2022-08-21T04:20:13;17.23;;;12.80;;
15049;SDS011;7622;42.724;23.250;2022-08-21T04:22:40;15.73;;;12.70;;
15049;SDS011;7622;42.724;23.250;2022-08-21T04:25:07;19.77;;;14.23;;
15049;SDS011;7622;42.724;23.250;2022-08-21T04:27:34;15.63;;;13.03;;
15049;SDS011;7622;42.724;23.250;2022-08-21T04:30:02;15.03;;;11.73;;
15049;SDS011;7622;42.724;23.250;2022-08-21T04:32:30;14.40;;;10.77;;
15049;SDS011;7622;42.724;23.250;2022-08-21T04:34:57;15.47;;;13.33;;
15049;SDS011;7622;42.724;23.250;2022-08-21T04:37:25;19.23;;;14.23;;
15049;SDS011;7622;42.724;23.250;2022-08-21T04:39:51;18.47;;;13.67;;
15049;SDS011;7622;42.724;23.250;2022-08-21T04:42:18;17.37;;;13.40;;
15049;SDS011;7622;42.724;23.250;2022-08-21T04:44:47;17.17;;;13.60;;
15049;SDS011;7622;42.724;23.250;2022-08-21T04:47:15;18.93;;;14.07;;
15049;SDS011;7622;42.724;23.250;2022-08-21T04:49:42;15.17;;;13.57;;
15049;SDS011;7622;42.724;23.250;2022-08-21T04:52:09;16.97;;;13.23;;
15049;SDS011;7622;42.724;23.250;2022-08-21T04:54:37;17.77;;;13.30;;
15049;SDS011;7622;42.724;23.250;2022-08-21T04:57:04;19.60;;;14.10;;
15049;SDS011;7622;42.724;23.250;2022-08-21T04:59:35;18.80;;;14.23;;
15049;SDS011;7622;42.724;23.250;2022-08-21T05:02:04;16.20;;;14.50;;
15049;SDS011;7622;42.724;23.250;2022-08-21T05:04:33;17.00;;;13.83;;
15049;SDS011;7622;42.724;23.250;2022-08-21T05:07:04;17.73;;;15.30;;
15049;SDS011;7622;42.724;23.250;2022-08-21T05:09:33;21.17;;;15.40;;
15049;SDS011;7622;42.724;23.250;2022-08-21T05:12:01;18.37;;;15.00;;
15049;SDS011;7622;42.724;23.250;2022-08-21T05:14:28;21.63;;;15.67;;
15049;SDS011;7622;42.724;23.250;2022-08-21T05:16:55;21.93;;;16.57;;
15049;SDS011;7622;42.724;23.250;2022-08-21T05:19:22;19.63;;;14.87;;
15049;SDS011;7622;42.724;23.250;2022-08-21T05:21:50;21.40;;;15.37;;
15049;SDS011;7622;42.724;23.250;2022-08-21T05:24:17;22.50;;;16.37;;
15049;SDS011;7622;42.724;23.250;2022-08-21T05:26:44;64.90;;;49.43;;
15049;SDS011;7622;42.724;23.250;2022-08-21T05:29:11;59.83;;;42.57;;
15049;SDS011;7622;42.724;23.250;2022-08-21T05:31:38;79.23;;;54.40;;
15049;SDS011;7622;42.724;23.250;2022-08-21T05:34:05;25.57;;;19.53;;
15049;SDS011;7622;42.724;23.250;2022-08-21T05:36:32;29.97;;;19.97;;
15049;SDS011;7622;42.724;23.250;2022-08-21T05:39:00;23.90;;;16.67;;
15049;SDS011;7622;42.724;23.250;2022-08-21T05:41:27;19.80;;;14.77;;
15049;SDS011;7622;42.724;23.250;2022-08-21T05:43:54;23.03;;;16.10;;
15049;SDS011;7622;42.724;23.250;2022-08-21T05:46:20;19.30;;;14.73;;
15049;SDS011;7622;42.724;23.250;2022-08-21T05:48:47;20.67;;;15.57;;
15049;SDS011;7622;42.724;23.250;2022-08-21T05:51:14;19.27;;;15.67;;
15049;SDS011;7622;42.724;23.250;2022-08-21T05:53:43;20.70;;;15.33;;
15049;SDS011;7622;42.724;23.250;2022-08-21T05:56:12;25.53;;;16.63;;
15049;SDS011;7622;42.724;23.250;2022-08-21T05:58:39;19.87;;;14.93;;
15049;SDS011;7622;42.724;23.250;2022-08-21T06:01:06;22.67;;;15.53;;
15049;SDS011;7622;42.724;23.250;2022-08-21T06:03:34;23.53;;;17.53;;
15049;SDS011;7622;42.724;23.250;2022-08-21T06:06:03;20.63;;;15.07;;
15049;SDS011;7622;42.724;23.250;2022-08-21T06:08:30;24.33;;;16.17;;
15049;SDS011;7622;42.724;23.250;2022-08-21T06:10:58;24.07;;;17.17;;
15049;SDS011;7622;42.724;23.250;2022-08-21T06:13:27;20.53;;;16.40;;
15049;SDS011;7622;42.724;23.250;2022-08-21T06:16:00;21.77;;;14.87;;
15049;SDS011;7622;42.724;23.250;2022-08-21T06:18:29;22.60;;;15.23;;
15049;SDS011;7622;42.724;23.250;2022-08-21T06:20:55;21.27;;;15.57;;
15049;SDS011;7622;42.724;23.250;2022-08-21T06:23:22;21.40;;;14.23;;
15049;SDS011;7622;42.724;23.250;2022-08-21T06:25:49;18.93;;;13.97;;
15049;SDS011;7622;42.724;23.250;2022-08-21T06:28:16;22.07;;;15.50;;
15049;SDS011;7622;42.724;23.250;2022-08-21T06:30:44;18.97;;;15.40;;
15049;SDS011;7622;42.724;23.250;2022-08-21T06:33:11;23.03;;;16.27;;
15049;SDS011;7622;42.724;23.250;2022-08-21T06:35:37;18.27;;;15.27;;
15049;SDS011;7622;42.724;23.250;2022-08-21T06:38:04;19.27;;;15.90;;
15049;SDS011;7622;42.724;23.250;2022-08-21T06:40:31;21.70;;;16.67;;
15049;SDS011;7622;42.724;23.250;2022-08-21T06:42:58;20.77;;;15.67;;
15049;SDS011;7622;42.724;23.250;2022-08-21T06:45:32;18.87;;;16.00;;
15049;SDS011;7622;42.724;23.250;2022-08-21T06:48:00;17.13;;;14.30;;
15049;SDS011;7622;42.724;23.250;2022-08-21T06:50:27;21.57;;;14.73;;
15049;SDS011;7622;42.724;23.250;2022-08-21T06:52:58;16.30;;;12.93;;
15049;SDS011;7622;42.724;23.250;2022-08-21T06:55:25;16.47;;;13.87;;
15049;SDS011;7622;42.724;23.250;2022-08-21T06:57:52;15.87;;;12.80;;
15049;SDS011;7622;42.724;23.250;2022-08-21T07:00:19;18.90;;;12.57;;
15049;SDS011;7622;42.724;23.250;2022-08-21T07:02:46;21.23;;;13.17;;
15049;SDS011;7622;42.724;23.250;2022-08-21T07:05:14;16.87;;;13.87;;
15049;SDS011;7622;42.724;23.250;2022-08-21T07:07:41;20.77;;;14.47;;
15049;SDS011;7622;42.724;23.250;2022-08-21T07:10:08;17.90;;;12.57;;
15049;SDS011;7622;42.724;23.250;2022-08-21T07:12:35;18.70;;;13.00;;
15049;SDS011;7622;42.724;23.250;2022-08-21T07:15:02;14.27;;;12.00;;
15049;SDS011;7622;42.724;23.250;2022-08-21T07:17:30;22.53;;;14.10;;
15049;SDS011;7622;42.724;23.250;2022-08-21T07:19:57;17.47;;;12.50;;
15049;SDS011;7622;42.724;23.250;2022-08-21T07:22:25;17.33;;;12.30;;
15049;SDS011;7622;42.724;23.250;2022-08-21T07:24:53;15.53;;;12.83;;
15049;SDS011;7622;42.724;23.250;2022-08-21T07:27:20;16.43;;;12.30;;
15049;SDS011;7622;42.724;23.250;2022-08-21T07:29:46;14.13;;;11.67;;
15049;SDS011;7622;42.724;23.250;2022-08-21T07:32:13;15.00;;;11.87;;
15049;SDS011;7622;42.724;23.250;2022-08-21T07:34:40;16.27;;;11.87;;
15049;SDS011;7622;42.724;23.250;2022-08-21T07:37:07;17.67;;;11.47;;
15049;SDS011;7622;42.724;23.250;2022-08-21T07:39:35;15.37;;;11.47;;
15049;SDS011;7622;42.724;23.250;2022-08-21T07:42:02;10.90;;;9.60;;
15049;SDS011;7622;42.724;23.250;2022-08-21T07:44:29;12.90;;;10.57;;
15049;SDS011;7622;42.724;23.250;2022-08-21T07:46:56;13.77;;;10.80;;
15049;SDS011;7622;42.724;23.250;2022-08-21T07:49:23;15.07;;;11.00;;
15049;SDS011;7622;42.724;23.250;2022-08-21T07:51:50;16.93;;;11.40;;
15049;SDS011;7622;42.724;23.250;2022-08-21T07:54:17;14.23;;;12.83;;
15049;SDS011;7622;42.724;23.250;2022-08-21T07:56:45;19.63;;;13.13;;
15049;SDS011;7622;42.724;23.250;2022-08-21T07:59:11;17.37;;;15.60;;
15049;SDS011;7622;42.724;23.250;2022-08-21T08:01:38;14.27;;;12.63;;
15049;SDS011;7622;42.724;23.250;2022-08-21T08:04:05;12.00;;;10.13;;
15049;SDS011;7622;42.724;23.250;2022-08-21T08:06:32;11.47;;;9.23;;
15049;SDS011;7622;42.724;23.250;2022-08-21T08:08:59;9.80;;;8.83;;
15049;SDS011;7622;42.724;23.250;2022-08-21T08:11:28;10.17;;;8.77;;
15049;SDS011;7622;42.724;23.250;2022-08-21T08:13:57;10.50;;;8.50;;
15049;SDS011;7622;42.724;23.250;2022-08-21T08:16:24;10.10;;;7.77;;
15049;SDS011;7622;42.724;23.250;2022-08-21T08:18:51;11.83;;;8.87;;
15049;SDS011;7622;42.724;23.250;2022-08-21T08:21:19;10.10;;;9.05;;
15049;SDS011;7622;42.724;23.250;2022-08-21T08:23:46;15.73;;;9.45;;
15049;SDS011;7622;42.724;23.250;2022-08-21T08:26:13;12.38;;;9.45;;
15049;SDS011;7622;42.724;23.250;2022-08-21T08:28:40;9.47;;;8.47;;
15049;SDS011;7622;42.724;23.250;2022-08-21T08:31:09;10.97;;;7.60;;
15049;SDS011;7622;42.724;23.250;2022-08-21T08:33:36;11.53;;;8.90;;
15049;SDS011;7622;42.724;23.250;2022-08-21T08:36:03;11.27;;;9.17;;
15049;SDS011;7622;42.724;23.250;2022-08-21T08:38:30;14.00;;;8.90;;
15049;SDS011;7622;42.724;23.250;2022-08-21T08:41:00;10.23;;;8.57;;
15049;SDS011;7622;42.724;23.250;2022-08-21T08:43:33;12.90;;;8.20;;
15049;SDS011;7622;42.724;23.250;2022-08-21T08:46:01;13.07;;;9.07;;
15049;SDS011;7622;42.724;23.250;2022-08-21T08:48:35;10.57;;;8.90;;
15049;SDS011;7622;42.724;23.250;2022-08-21T08:51:08;9.23;;;8.23;;
15049;SDS011;7622;42.724;23.250;2022-08-21T08:53:45;9.33;;;7.97;;
15049;SDS011;7622;42.724;23.250;2022-08-21T08:56:18;9.07;;;8.23;;
15049;SDS011;7622;42.724;23.250;2022-08-21T08:58:48;10.03;;;8.27;;
15049;SDS011;7622;42.724;23.250;2022-08-21T09:01:18;9.77;;;7.90;;
15049;SDS011;7622;42.724;23.250;2022-08-21T09:03:48;10.70;;;7.57;;
15049;SDS011;7622;42.724;23.250;2022-08-21T09:06:20;9.37;;;8.23;;
15049;SDS011;7622;42.724;23.250;2022-08-21T09:08:58;12.53;;;9.43;;
15049;SDS011;7622;42.724;23.250;2022-08-21T09:11:37;11.50;;;9.02;;
15049;SDS011;7622;42.724;23.250;2022-08-21T09:14:13;8.50;;;6.93;;
15049;SDS011;7622;42.724;23.250;2022-08-21T09:16:52;11.88;;;7.80;;
15049;SDS011;7622;42.724;23.250;2022-08-21T09:19:32;8.32;;;7.43;;
15049;SDS011;7622;42.724;23.250;2022-08-21T09:22:15;7.95;;;7.22;;
15049;SDS011;7622;42.724;23.250;2022-08-21T09:24:53;12.32;;;7.22;;
15049;SDS011;7622;42.724;23.250;2022-08-21T09:27:28;10.20;;;5.70;;
15049;SDS011;7622;42.724;23.250;2022-08-21T09:29:57;9.63;;;6.20;;
15049;SDS011;7622;42.724;23.250;2022-08-21T09:32:25;7.20;;;6.40;;
15049;SDS011;7622;42.724;23.250;2022-08-21T09:34:56;8.48;;;6.75;;
15049;SDS011;7622;42.724;23.250;2022-08-21T09:37:25;8.68;;;7.35;;
15049;SDS011;7622;42.724;23.250;2022-08-21T09:39:54;7.57;;;6.78;;
15049;SDS011;7622;42.724;23.250;2022-08-21T09:42:23;7.25;;;6.55;;
15049;SDS011;7622;42.724;23.250;2022-08-21T09:45:04;7.05;;;5.65;;
15049;SDS011;7622;42.724;23.250;2022-08-21T09:47:33;12.15;;;7.00;;
15049;SDS011;7622;42.724;23.250;2022-08-21T09:50:12;9.88;;;7.63;;
15049;SDS011;7622;42.724;23.250;2022-08-21T09:52:46;8.18;;;5.40;;
15049;SDS011;7622;42.724;23.250;2022-08-21T09:55:20;7.90;;;6.03;;
15049;SDS011;7622;42.724;23.250;2022-08-21T09:58:10;7.78;;;5.93;;
15049;SDS011;7622;42.724;23.250;2022-08-21T10:00:37;7.15;;;6.45;;
15049;SDS011;7622;42.724;23.250;2022-08-21T10:03:08;8.23;;;6.10;;
15049;SDS011;7622;42.724;23.250;2022-08-21T10:05:39;7.13;;;5.60;;
15049;SDS011;7622;42.724;23.250;2022-08-21T10:08:16;7.18;;;6.45;;
15049;SDS011;7622;42.724;23.250;2022-08-21T10:10:44;7.40;;;5.60;;
15049;SDS011;7622;42.724;23.250;2022-08-21T10:13:12;6.88;;;5.93;;
15049;SDS011;7622;42.724;23.250;2022-08-21T10:15:47;8.57;;;6.40;;
15049;SDS011;7622;42.724;23.250;2022-08-21T10:18:24;8.38;;;6.13;;
15049;SDS011;7622;42.724;23.250;2022-08-21T10:20:57;8.20;;;6.35;;
15049;SDS011;7622;42.724;23.250;2022-08-21T10:23:33;7.93;;;6.18;;
15049;SDS011;7622;42.724;23.250;2022-08-21T10:26:11;9.52;;;6.28;;
15049;SDS011;7622;42.724;23.250;2022-08-21T10:28:51;8.23;;;5.90;;
15049;SDS011;7622;42.724;23.250;2022-08-21T10:31:38;9.98;;;6.18;;
15049;SDS011;7622;42.724;23.250;2022-08-21T10:34:22;7.65;;;6.05;;
15049;SDS011;7622;42.724;23.250;2022-08-21T10:37:06;8.82;;;5.45;;
15049;SDS011;7622;42.724;23.250;2022-08-21T10:39:45;7.68;;;6.13;;
15049;SDS011;7622;42.724;23.250;2022-08-21T10:42:23;7.57;;;5.85;;
15049;SDS011;7622;42.724;23.250;2022-08-21T10:45:00;7.82;;;5.40;;
15049;SDS011;7622;42.724;23.250;2022-08-21T10:47:37;11.23;;;5.72;;
15049;SDS011;7622;42.724;23.250;2022-08-21T10:50:12;5.72;;;5.15;;
15049;SDS011;7622;42.724;23.250;2022-08-21T10:52:55;8.82;;;5.20;;
15049;SDS011;7622;42.724;23.250;2022-08-21T10:55:33;7.90;;;5.95;;
15049;SDS011;7622;42.724;23.250;2022-08-21T10:58:08;9.07;;;5.65;;
15049;SDS011;7622;42.724;23.250;2022-08-21T11:00:38;6.57;;;5.75;;
15049;SDS011;7622;42.724;23.250;2022-08-21T11:03:10;9.00;;;5.07;;
15049;SDS011;7622;42.724;23.250;2022-08-21T11:05:40;7.35;;;5.85;;
15049;SDS011;7622;42.724;23.250;2022-08-21T11:08:17;10.13;;;5.28;;
15049;SDS011;7622;42.724;23.250;2022-08-21T11:10:50;8.82;;;5.53;;
15049;SDS011;7622;42.724;23.250;2022-08-21T11:13:21;9.40;;;5.72;;
15049;SDS011;7622;42.724;23.250;2022-08-21T11:15:55;6.10;;;5.47;;
15049;SDS011;7622;42.724;23.250;2022-08-21T11:18:26;10.55;;;5.78;;
15049;SDS011;7622;42.724;23.250;2022-08-21T11:20:59;6.10;;;5.38;;
15049;SDS011;7622;42.724;23.250;2022-08-21T11:23:34;7.90;;;5.78;;
15049;SDS011;7622;42.724;23.250;2022-08-21T11:26:08;6.72;;;6.03;;
15049;SDS011;7622;42.724;23.250;2022-08-21T11:28:42;6.63;;;5.70;;
15049;SDS011;7622;42.724;23.250;2022-08-21T11:31:25;9.85;;;6.22;;
15049;SDS011;7622;42.724;23.250;2022-08-21T11:34:06;6.80;;;6.20;;
15049;SDS011;7622;42.724;23.250;2022-08-21T11:36:42;6.88;;;6.03;;
15049;SDS011;7622;42.724;23.250;2022-08-21T11:39:21;10.57;;;6.18;;
15049;SDS011;7622;42.724;23.250;2022-08-21T11:41:54;8.30;;;5.68;;
15049;SDS011;7622;42.724;23.250;2022-08-21T11:44:30;8.00;;;5.65;;
15049;SDS011;7622;42.724;23.250;2022-08-21T11:47:14;6.97;;;5.80;;
15049;SDS011;7622;42.724;23.250;2022-08-21T11:49:51;8.60;;;6.00;;
15049;SDS011;7622;42.724;23.250;2022-08-21T11:52:28;6.25;;;5.65;;
15049;SDS011;7622;42.724;23.250;2022-08-21T11:55:02;8.23;;;6.32;;
15049;SDS011;7622;42.724;23.250;2022-08-21T11:57:32;8.25;;;6.55;;
15049;SDS011;7622;42.724;23.250;2022-08-21T12:00:04;10.95;;;6.65;;
15049;SDS011;7622;42.724;23.250;2022-08-21T12:02:46;7.38;;;6.45;;
15049;SDS011;7622;42.724;23.250;2022-08-21T12:05:22;6.93;;;6.32;;
15049;SDS011;7622;42.724;23.250;2022-08-21T12:08:01;6.50;;;5.90;;
15049;SDS011;7622;42.724;23.250;2022-08-21T12:10:34;7.47;;;5.35;;
15049;SDS011;7622;42.724;23.250;2022-08-21T12:13:06;7.53;;;5.95;;
15049;SDS011;7622;42.724;23.250;2022-08-21T12:15:36;10.80;;;6.15;;
15049;SDS011;7622;42.724;23.250;2022-08-21T12:18:05;8.63;;;5.30;;
15049;SDS011;7622;42.724;23.250;2022-08-21T12:20:59;7.85;;;5.93;;
15049;SDS011;7622;42.724;23.250;2022-08-21T12:23:30;8.13;;;5.53;;
15049;SDS011;7622;42.724;23.250;2022-08-21T12:26:01;6.43;;;5.30;;
15049;SDS011;7622;42.724;23.250;2022-08-21T12:28:46;7.33;;;5.17;;
15049;SDS011;7622;42.724;23.250;2022-08-21T12:31:17;6.90;;;4.90;;
15049;SDS011;7622;42.724;23.250;2022-08-21T12:33:51;8.93;;;5.10;;
15049;SDS011;7622;42.724;23.250;2022-08-21T12:36:22;6.87;;;5.30;;
15049;SDS011;7622;42.724;23.250;2022-08-21T12:38:52;9.60;;;5.53;;
15049;SDS011;7622;42.724;23.250;2022-08-21T12:41:26;7.57;;;5.20;;
15049;SDS011;7622;42.724;23.250;2022-08-21T12:43:57;7.03;;;5.20;;
15049;SDS011;7622;42.724;23.250;2022-08-21T12:46:30;6.13;;;4.97;;
15049;SDS011;7622;42.724;23.250;2022-08-21T12:49:02;6.10;;;5.23;;
15049;SDS011;7622;42.724;23.250;2022-08-21T12:51:46;6.17;;;4.50;;
15049;SDS011;7622;42.724;23.250;2022-08-21T12:54:24;5.70;;;5.20;;
15049;SDS011;7622;42.724;23.250;2022-08-21T12:56:59;6.57;;;5.80;;
15049;SDS011;7622;42.724;23.250;2022-08-21T12:59:27;8.17;;;5.70;;
15049;SDS011;7622;42.724;23.250;2022-08-21T13:01:54;7.07;;;5.90;;
15049;SDS011;7622;42.724;23.250;2022-08-21T13:04:31;5.90;;;5.40;;
15049;SDS011;7622;42.724;23.250;2022-08-21T13:07:04;6.30;;;5.80;;
15049;SDS011;7622;42.724;23.250;2022-08-21T13:09:36;13.77;;;6.20;;
15049;SDS011;7622;42.724;23.250;2022-08-21T13:12:08;7.17;;;5.53;;
15049;SDS011;7622;42.724;23.250;2022-08-21T13:14:36;8.37;;;5.97;;
15049;SDS011;7622;42.724;23.250;2022-08-21T13:17:04;6.73;;;5.97;;
15049;SDS011;7622;42.724;23.250;2022-08-21T13:19:33;8.30;;;5.13;;
15049;SDS011;7622;42.724;23.250;2022-08-21T13:22:00;9.60;;;5.80;;
15049;SDS011;7622;42.724;23.250;2022-08-21T13:24:29;6.63;;;5.43;;
15049;SDS011;7622;42.724;23.250;2022-08-21T13:26:58;5.87;;;5.10;;
15049;SDS011;7622;42.724;23.250;2022-08-21T13:29:29;5.70;;;5.20;;
15049;SDS011;7622;42.724;23.250;2022-08-21T13:31:59;8.20;;;5.37;;
15049;SDS011;7622;42.724;23.250;2022-08-21T13:34:29;5.93;;;5.40;;
15049;SDS011;7622;42.724;23.250;2022-08-21T13:36:58;7.07;;;5.07;;
15049;SDS011;7622;42.724;23.250;2022-08-21T13:39:26;7.77;;;5.40;;
15049;SDS011;7622;42.724;23.250;2022-08-21T13:41:54;6.17;;;5.47;;
15049;SDS011;7622;42.724;23.250;2022-08-21T13:44:32;7.93;;;5.20;;
15049;SDS011;7622;42.724;23.250;2022-08-21T13:47:03;5.90;;;5.03;;
15049;SDS011;7622;42.724;23.250;2022-08-21T13:49:32;5.73;;;5.23;;
15049;SDS011;7622;42.724;23.250;2022-08-21T13:52:01;8.37;;;5.27;;
15049;SDS011;7622;42.724;23.250;2022-08-21T13:54:33;6.00;;;5.50;;
15049;SDS011;7622;42.724;23.250;2022-08-21T13:57:01;8.13;;;5.23;;
15049;SDS011;7622;42.724;23.250;2022-08-21T13:59:30;7.90;;;5.30;;
15049;SDS011;7622;42.724;23.250;2022-08-21T14:02:00;8.57;;;4.80;;
15049;SDS011;7622;42.724;23.250;2022-08-21T14:04:35;6.93;;;5.20;;
15049;SDS011;7622;42.724;23.250;2022-08-21T14:07:13;5.97;;;4.93;;
15049;SDS011;7622;42.724;23.250;2022-08-21T14:09:43;6.97;;;5.07;;
15049;SDS011;7622;42.724;23.250;2022-08-21T14:12:12;7.57;;;4.73;;
15049;SDS011;7622;42.724;23.250;2022-08-21T14:14:41;6.23;;;4.90;;
15049;SDS011;7622;42.724;23.250;2022-08-21T14:17:10;7.03;;;5.27;;
15049;SDS011;7622;42.724;23.250;2022-08-21T14:19:41;7.27;;;4.90;;
15049;SDS011;7622;42.724;23.250;2022-08-21T14:22:22;5.67;;;4.23;;
15049;SDS011;7622;42.724;23.250;2022-08-21T14:25:03;5.30;;;4.90;;
15049;SDS011;7622;42.724;23.250;2022-08-21T14:27:32;7.00;;;5.10;;
15049;SDS011;7622;42.724;23.250;2022-08-21T14:30:01;6.70;;;4.93;;
15049;SDS011;7622;42.724;23.250;2022-08-21T14:32:37;4.67;;;4.23;;
15049;SDS011;7622;42.724;23.250;2022-08-21T14:35:06;9.63;;;5.33;;
15049;SDS011;7622;42.724;23.250;2022-08-21T14:37:34;5.63;;;4.73;;
15049;SDS011;7622;42.724;23.250;2022-08-21T14:40:01;7.77;;;4.20;;
15049;SDS011;7622;42.724;23.250;2022-08-21T14:42:29;5.83;;;4.33;;
15049;SDS011;7622;42.724;23.250;2022-08-21T14:44:58;6.10;;;5.23;;
15049;SDS011;7622;42.724;23.250;2022-08-21T14:47:33;6.73;;;4.43;;
15049;SDS011;7622;42.724;23.250;2022-08-21T14:50:03;5.87;;;4.40;;
15049;SDS011;7622;42.724;23.250;2022-08-21T14:52:30;6.43;;;3.80;;